Time;durP1;ratioP1;P1;durP2;ratioP2;P2;SDS_P1;SDS_P2;PMS_P1;PMS_P2;Temp;Humidity;BMP_temperature;BMP_pressure;BME280_temperature;BME280_humidity;BME280_pressure;Samples;Min_cycle;Max_cycle;Signal;HPM_P1;HPM_P2
2022/04/09 00:00:59;;;;;;;13.82;2.53;;;;;;;2.99;87.02;100640.38;5092795;28;20036;-72
2022/04/09 00:03:24;;;;;;;10.32;2.17;;;;;;;2.80;88.03;100641.50;5092445;28;20058;-72
2022/04/09 00:05:50;;;;;;;14.95;2.90;;;;;;;2.71;89.19;100633.34;5093054;28;20032;-71
2022/04/09 00:08:15;;;;;;;17.25;2.75;;;;;;;2.69;89.69;100637.84;5078510;28;20031;-73
2022/04/09 00:10:40;;;;;;;17.83;3.10;;;;;;;2.76;90.01;100647.91;5096865;28;20028;-72
2022/04/09 00:13:06;;;;;;;15.73;3.10;;;;;;;2.86;90.12;100653.44;5096100;28;20054;-73
2022/04/09 00:15:32;;;;;;;26.40;3.55;;;;;;;3.02;89.43;100655.97;5096798;28;20502;-72
2022/04/09 00:17:57;;;;;;;21.17;3.25;;;;;;;3.21;86.50;100653.06;5097389;28;20032;-71
2022/04/09 00:20:22;;;;;;;16.15;2.60;;;;;;;3.20;85.24;100653.97;5096981;28;20078;-73
2022/04/09 00:22:48;;;;;;;14.43;2.55;;;;;;;3.15;84.59;100667.41;5096283;28;20036;-73
2022/04/09 00:25:15;;;;;;;16.95;2.97;;;;;;;3.16;84.46;100665.63;5095966;28;20036;-72
2022/04/09 00:27:40;;;;;;;26.55;2.78;;;;;;;3.17;84.80;100673.41;5096068;28;20130;-72
2022/04/09 00:30:08;;;;;;;23.58;3.22;;;;;;;3.29;84.87;100668.34;5095744;28;20158;-80
2022/04/09 00:32:34;;;;;;;16.25;2.80;;;;;;;3.39;83.67;100671.22;5093290;28;20036;-80
2022/04/09 00:35:00;;;;;;;24.05;3.83;;;;;;;3.49;82.95;100670.56;5092784;28;20032;-81
2022/04/09 00:37:25;;;;;;;23.48;4.72;;;;;;;3.49;82.92;100681.09;5093349;28;20377;-80
2022/04/09 00:39:50;;;;;;;20.90;3.78;;;;;;;3.51;83.82;100673.94;5093646;28;20052;-80
2022/04/09 00:42:18;;;;;;;18.88;3.35;;;;;;;3.52;83.47;100686.16;5093357;28;20039;-81
2022/04/09 00:44:45;;;;;;;18.15;3.53;;;;;;;3.57;82.99;100693.75;5093281;28;20043;-80
2022/04/09 00:47:11;;;;;;;22.10;2.75;;;;;;;3.52;82.49;100690.53;5093147;28;20047;-81
2022/04/09 00:49:37;;;;;;;17.80;2.85;;;;;;;3.51;81.71;100697.59;5093170;28;20028;-81
2022/04/09 00:52:04;;;;;;;22.70;2.83;;;;;;;3.49;81.22;100694.25;5093518;28;20028;-80
2022/04/09 00:54:31;;;;;;;11.52;1.92;;;;;;;3.51;80.18;100697.59;5074218;28;20040;-81
2022/04/09 00:57:05;;;;;;;16.48;2.28;;;;;;;3.47;79.97;100704.00;5074652;28;20032;-80
2022/04/09 00:59:34;;;;;;;19.90;2.75;;;;;;;3.48;79.39;100705.69;5074179;28;20032;-80
2022/04/09 01:02:00;;;;;;;17.65;3.20;;;;;;;3.51;79.51;100712.56;5092441;28;20110;-80
2022/04/09 01:04:25;;;;;;;12.73;2.78;;;;;;;3.49;79.79;100709.16;5092430;28;20036;-79
2022/04/09 01:06:52;;;;;;;17.52;2.70;;;;;;;3.55;79.38;100721.09;5092964;28;20097;-81
2022/04/09 01:09:17;;;;;;;20.27;3.42;;;;;;;3.58;79.90;100718.25;5092423;28;20032;-80
2022/04/09 01:11:43;;;;;;;38.78;4.72;;;;;;;3.68;79.41;100724.63;5074373;28;20125;-80
2022/04/09 01:14:12;;;;;;;24.17;3.60;;;;;;;3.75;79.63;100731.19;5076520;28;20206;-80
2022/04/09 01:16:37;;;;;;;20.15;3.33;;;;;;;3.91;79.37;100733.69;5094515;28;20031;-80
2022/04/09 01:19:03;;;;;;;21.15;3.50;;;;;;;4.12;78.39;100738.50;5096394;28;20042;-80
2022/04/09 01:21:28;;;;;;;23.70;3.13;;;;;;;4.21;78.12;100749.28;5092812;28;20044;-80
2022/04/09 01:23:54;;;;;;;20.05;3.28;;;;;;;4.33;77.09;100760.81;5092429;28;20036;-79
2022/04/09 01:26:20;;;;;;;20.00;2.88;;;;;;;4.31;76.11;100765.31;5057418;28;20078;-79
2022/04/09 01:28:47;;;;;;;16.02;2.65;;;;;;;4.22;74.83;100774.69;5073757;28;20421;-80
2022/04/09 01:31:12;;;;;;;13.07;2.38;;;;;;;4.10;74.61;100778.09;5092192;28;20032;-80
2022/04/09 01:33:38;;;;;;;8.75;2.15;;;;;;;4.01;73.83;100789.22;5091612;28;20036;-79
2022/04/09 01:36:04;;;;;;;12.93;2.50;;;;;;;3.96;72.03;100789.53;5073760;28;20032;-79
2022/04/09 01:38:29;;;;;;;13.65;2.47;;;;;;;3.93;72.12;100781.81;5074108;28;20028;-81
2022/04/09 01:40:54;;;;;;;11.00;1.77;;;;;;;3.86;73.01;100796.31;5092110;28;20048;-79
2022/04/09 01:43:21;;;;;;;15.15;2.45;;;;;;;3.80;73.69;100789.66;5057230;28;20119;-78
2022/04/09 01:45:47;;;;;;;13.52;1.73;;;;;;;3.73;75.35;100788.34;5057027;28;20036;-80
2022/04/09 01:48:12;;;;;;;14.80;2.60;;;;;;;3.62;77.38;100789.00;5091701;28;20120;-79
2022/04/09 01:50:37;;;;;;;11.57;2.10;;;;;;;3.51;78.13;100786.22;5091501;28;20040;-78
2022/04/09 01:53:03;;;;;;;11.30;2.17;;;;;;;3.40;78.36;100788.66;5073486;28;20032;-79
2022/04/09 01:55:28;;;;;;;10.40;2.55;;;;;;;3.30;79.29;100797.09;5091633;28;20453;-79
2022/04/09 01:57:54;;;;;;;12.75;2.50;;;;;;;3.24;80.21;100794.00;5091671;28;20097;-79
2022/04/09 02:00:19;;;;;;;23.30;2.40;;;;;;;3.20;80.63;100793.34;5073160;28;20438;-79
2022/04/09 02:02:45;;;;;;;13.68;2.53;;;;;;;3.13;81.76;100798.09;5056844;28;20040;-79
2022/04/09 02:05:13;;;;;;;18.02;2.92;;;;;;;3.14;81.94;100805.06;5072675;28;20035;-79
2022/04/09 02:07:41;;;;;;;17.13;3.08;;;;;;;3.14;81.95;100812.97;5091172;28;20082;-79
2022/04/09 02:10:08;;;;;;;14.38;2.47;;;;;;;3.15;82.52;100812.03;5072887;28;20085;-80
2022/04/09 02:12:34;;;;;;;16.38;2.53;;;;;;;3.15;83.03;100814.66;5072607;28;20032;-79
2022/04/09 02:15:09;;;;;;;26.05;2.72;;;;;;;3.20;83.46;100816.16;5091166;28;20027;-80
2022/04/09 02:17:36;;;;;;;19.73;3.28;;;;;;;3.27;83.61;100817.47;5072666;28;20480;-79
2022/04/09 02:20:03;;;;;;;28.42;4.88;;;;;;;3.30;83.84;100819.91;5090852;28;20055;-78
2022/04/09 02:22:35;;;;;;;17.92;3.42;;;;;;;3.30;84.17;100826.03;5073007;28;20047;-79
2022/04/09 02:25:02;;;;;;;19.33;2.72;;;;;;;3.38;84.57;100835.25;5072702;28;20032;-79
2022/04/09 02:27:28;;;;;;;34.58;3.92;;;;;;;3.44;84.70;100835.72;5091218;28;20035;-81
2022/04/09 02:29:53;;;;;;;26.90;3.63;;;;;;;3.50;84.55;100845.03;5090690;28;20361;-78
2022/04/09 02:32:19;;;;;;;26.02;3.35;;;;;;;3.46;83.80;100840.88;5090878;28;20113;-79
2022/04/09 02:34:44;;;;;;;17.08;2.80;;;;;;;3.44;83.12;100840.97;5091080;28;20440;-79
2022/04/09 02:37:09;;;;;;;18.27;3.03;;;;;;;3.44;81.88;100842.78;5056296;28;20200;-79
2022/04/09 02:39:35;;;;;;;18.00;2.45;;;;;;;3.38;81.28;100845.78;5072159;28;20140;-80
2022/04/09 02:42:00;;;;;;;12.75;3.10;;;;;;;3.35;80.88;100837.13;5091342;28;20039;-80
2022/04/09 02:44:26;;;;;;;16.30;2.67;;;;;;;3.35;79.84;100850.25;5072949;28;20028;-80
2022/04/09 02:46:51;;;;;;;9.85;2.08;;;;;;;3.47;77.96;100855.75;5091203;28;20345;-79
2022/04/09 02:49:17;;;;;;;9.98;1.98;;;;;;;3.50;76.91;100848.50;5072693;28;20028;-79
2022/04/09 02:51:43;;;;;;;17.20;2.28;;;;;;;3.55;76.86;100848.22;5090882;28;20039;-80
2022/04/09 02:54:15;;;;;;;14.93;2.28;;;;;;;3.52;77.34;100865.06;5055421;28;20024;-79
2022/04/09 02:56:40;;;;;;;;;;;;;;;3.56;78.13;100852.53;5091045;28;20043;-79
2022/04/09 02:59:08;;;;;;;15.45;2.47;;;;;;;3.53;78.89;100855.34;5072438;28;20003;-80
2022/04/09 03:01:33;;;;;;;18.55;2.85;;;;;;;3.53;78.90;100850.09;5056499;28;20380;-80
2022/04/09 03:03:59;;;;;;;19.30;3.45;;;;;;;3.52;79.22;100862.41;5090940;28;20036;-79
2022/04/09 03:06:24;;;;;;;13.90;2.60;;;;;;;3.60;79.23;100855.81;5072101;28;20115;-82
2022/04/09 03:08:49;;;;;;;18.10;3.03;;;;;;;3.66;79.12;100868.63;5056346;28;20356;-80
2022/04/09 03:11:15;;;;;;;21.02;2.65;;;;;;;3.67;77.04;100860.63;5055567;28;20513;-79
2022/04/09 03:13:40;;;;;;;16.23;2.92;;;;;;;3.75;74.86;100870.69;5090204;28;20493;-79
2022/04/09 03:16:05;;;;;;;10.10;1.75;;;;;;;3.73;74.77;100877.81;5072877;28;20340;-78
2022/04/09 03:18:31;;;;;;;14.90;2.63;;;;;;;3.76;74.30;100885.53;5055466;28;20079;-79
2022/04/09 03:20:56;;;;;;;14.82;3.20;;;;;;;3.84;73.13;100883.28;5072753;28;20044;-79
2022/04/09 03:23:21;;;;;;;18.42;2.35;;;;;;;3.91;72.99;100893.44;5090173;28;20040;-79
2022/04/09 03:25:48;;;;;;;17.15;2.42;;;;;;;3.98;72.83;100892.94;5090680;28;20094;-79
2022/04/09 03:28:14;;;;;;;11.30;1.83;;;;;;;3.96;73.13;100886.09;5071948;28;20032;-79
2022/04/09 03:30:39;;;;;;;16.25;2.38;;;;;;;3.92;73.89;100895.97;5071964;28;20028;-78
2022/04/09 03:33:05;;;;;;;15.85;2.42;;;;;;;3.87;74.43;100904.16;5072189;28;20032;-79
2022/04/09 03:35:31;;;;;;;15.60;3.38;;;;;;;3.84;74.63;100901.72;5090383;28;20033;-80
2022/04/09 03:37:57;;;;;;;13.98;3.70;;;;;;;3.84;73.86;100904.34;5090608;28;20032;-79
2022/04/09 03:40:22;;;;;;;14.85;2.80;;;;;;;3.86;74.31;100899.81;5071869;28;20589;-78
2022/04/09 03:42:48;;;;;;;17.05;2.88;;;;;;;3.91;74.61;100914.47;5094201;28;20082;-79
2022/04/09 03:45:13;;;;;;;17.05;2.80;;;;;;;3.97;74.97;100917.59;5094314;28;20036;-79
2022/04/09 03:47:38;;;;;;;16.45;3.25;;;;;;;4.03;76.38;100916.34;5094243;28;20111;-78
2022/04/09 03:50:04;;;;;;;22.85;2.50;;;;;;;4.07;76.69;100917.88;5094341;28;20032;-78
2022/04/09 03:52:30;;;;;;;16.20;2.70;;;;;;;4.02;77.41;100925.22;5094063;28;20329;-81
2022/04/09 03:54:55;;;;;;;14.80;2.47;;;;;;;3.95;78.08;100923.91;5076091;28;20143;-77
2022/04/09 03:57:21;;;;;;;16.75;2.50;;;;;;;3.91;79.02;100925.84;5076197;28;20035;-77
2022/04/09 03:59:46;;;;;;;18.05;2.88;;;;;;;3.92;78.78;100926.72;5094267;28;20539;-78
2022/04/09 04:02:12;;;;;;;17.70;2.78;;;;;;;3.87;78.73;100925.22;5075848;28;20089;-78
2022/04/09 04:04:37;;;;;;;17.77;3.08;;;;;;;3.85;78.67;100932.34;5093901;28;20130;-80
2022/04/09 04:07:03;;;;;;;20.35;2.42;;;;;;;3.83;79.12;100936.84;5075690;28;20090;-77
2022/04/09 04:09:29;;;;;;;15.93;3.00;;;;;;;3.84;78.44;100940.34;5075438;28;20027;-79
2022/04/09 04:11:54;;;;;;;13.68;2.60;;;;;;;3.86;78.23;100935.81;5058783;28;20024;-77
2022/04/09 04:14:20;;;;;;;14.10;2.67;;;;;;;3.86;77.47;100933.19;5093724;28;20552;-78
2022/04/09 04:16:45;;;;;;;14.73;2.72;;;;;;;3.88;77.17;100950.59;5093591;28;20028;-79
2022/04/09 04:19:11;;;;;;;17.25;2.75;;;;;;;3.89;76.89;100951.44;5075405;28;20040;-79
2022/04/09 04:21:38;;;;;;;16.25;2.75;;;;;;;3.88;77.17;100957.63;5058547;28;20105;-79
2022/04/09 04:24:04;;;;;;;21.08;2.72;;;;;;;3.93;77.24;100955.59;5093475;28;20089;-78
2022/04/09 04:26:29;;;;;;;20.75;2.97;;;;;;;3.92;76.44;100967.03;5093290;28;20472;-77
2022/04/09 04:28:54;;;;;;;14.88;2.13;;;;;;;3.96;75.91;100959.81;5093317;28;20028;-78
2022/04/09 04:31:20;;;;;;;17.52;3.88;;;;;;;3.98;75.54;100973.72;5093613;28;20161;-77
2022/04/09 04:33:45;;;;;;;14.52;3.42;;;;;;;3.99;75.64;100968.38;5074965;28;20032;-79
2022/04/09 04:36:11;;;;;;;12.55;3.08;;;;;;;4.04;75.71;100968.91;5093412;28;20043;-78
2022/04/09 04:38:36;;;;;;;13.95;2.75;;;;;;;4.13;74.44;100964.88;5093120;28;20032;-79
2022/04/09 04:41:04;;;;;;;18.98;2.50;;;;;;;4.11;74.36;100963.31;5074753;28;20481;-78
2022/04/09 04:43:29;;;;;;;18.88;2.70;;;;;;;4.13;74.69;100964.88;5074925;28;20063;-78
2022/04/09 04:45:55;;;;;;;16.00;2.50;;;;;;;4.22;74.72;100974.88;5093184;28;20059;-78
2022/04/09 04:48:20;;;;;;;20.33;2.65;;;;;;;4.34;74.51;100965.34;5074271;28;20110;-77
2022/04/09 04:50:46;;;;;;;17.88;2.97;;;;;;;4.40;74.84;100986.06;5041249;28;20479;-78
2022/04/09 04:53:12;;;;;;;17.35;3.03;;;;;;;4.48;75.03;100982.06;5073808;28;20484;-79
2022/04/09 04:55:38;;;;;;;20.92;2.83;;;;;;;4.52;75.63;100978.31;5074200;28;20464;-82
2022/04/09 04:58:03;;;;;;;26.13;3.30;;;;;;;4.54;75.84;100984.34;5074653;28;20164;-79
2022/04/09 05:00:29;;;;;;;20.05;3.63;;;;;;;4.55;76.35;100992.16;5092789;28;20062;-77
2022/04/09 05:02:55;;;;;;;11.27;3.10;;;;;;;4.59;77.03;100996.28;5092596;28;20046;-76
2022/04/09 05:05:21;;;;;;;12.55;2.10;;;;;;;4.65;75.57;100999.47;5092528;28;20035;-76
2022/04/09 05:07:49;;;;;;;12.57;2.75;;;;;;;4.62;75.34;101004.94;5092590;28;20032;-78
2022/04/09 05:10:16;;;;;;;9.20;1.98;;;;;;;4.49;75.24;101004.84;5074506;28;20027;-76
2022/04/09 05:12:42;;;;;;;11.10;1.77;;;;;;;4.37;74.81;101015.22;5073720;28;20036;-78
2022/04/09 05:15:10;;;;;;;10.85;1.95;;;;;;;4.27;75.21;101023.78;5092584;28;20036;-78
2022/04/09 05:17:36;;;;;;;11.57;2.03;;;;;;;4.21;76.31;101033.75;5057033;28;20150;-79
2022/04/09 05:20:03;;;;;;;14.23;2.00;;;;;;;4.18;77.13;101044.47;5092642;28;20448;-79
2022/04/09 05:22:30;;;;;;;19.80;2.38;;;;;;;4.07;78.35;101057.44;5092739;28;20028;-80
2022/04/09 05:24:56;;;;;;;14.00;2.28;;;;;;;3.69;78.39;101057.91;5092226;28;20035;-80
2022/04/09 05:27:21;;;;;;;16.92;2.40;;;;;;;3.30;80.05;101053.97;5092860;28;20028;-82
2022/04/09 05:29:47;;;;;;;5.38;1.50;;;;;;;2.95;79.28;101051.56;5092126;28;20379;-80
2022/04/09 05:32:13;;;;;;;6.85;1.55;;;;;;;2.75;79.61;101056.13;5092490;28;20169;-80
2022/04/09 05:34:38;;;;;;;12.32;2.30;;;;;;;2.61;80.85;101056.88;5092026;28;20433;-80
2022/04/09 05:37:03;;;;;;;9.07;3.22;;;;;;;2.53;83.27;101056.44;5040403;28;20060;-80
2022/04/09 05:39:29;;;;;;;9.63;1.98;;;;;;;2.52;84.38;101043.38;5092132;28;20126;-80
2022/04/09 05:41:54;;;;;;;9.23;2.45;;;;;;;2.59;84.41;101056.09;5073691;28;20375;-80
2022/04/09 05:44:20;;;;;;;11.52;2.13;;;;;;;2.67;84.35;101060.94;5073278;28;20050;-79
2022/04/09 05:46:45;;;;;;;20.25;2.60;;;;;;;2.72;84.70;101064.19;5074153;28;20101;-80
2022/04/09 05:49:11;;;;;;;19.52;3.15;;;;;;;2.81;85.86;101065.47;5073297;28;20114;-79
2022/04/09 05:51:36;;;;;;;18.83;2.88;;;;;;;2.95;86.87;101075.22;5073438;28;20131;-79
2022/04/09 05:54:03;;;;;;;15.82;3.05;;;;;;;3.07;87.82;101064.00;5073659;28;20382;-80
2022/04/09 05:56:28;;;;;;;14.80;3.80;;;;;;;3.30;87.99;101072.41;5091911;28;20038;-80
2022/04/09 05:58:54;;;;;;;18.70;3.72;;;;;;;3.44;87.59;101074.25;5040144;28;20028;-81
2022/04/09 06:01:19;;;;;;;20.20;2.83;;;;;;;3.60;86.58;101075.09;5073333;28;20028;-80
2022/04/09 06:03:44;;;;;;;16.75;3.25;;;;;;;3.73;85.83;101077.00;5090672;28;20050;-80
2022/04/09 06:06:11;;;;;;;16.58;2.50;;;;;;;3.80;85.51;101088.88;5073061;28;20028;-79
2022/04/09 06:08:37;;;;;;;17.45;3.90;;;;;;;3.94;84.56;101091.56;5091467;28;20044;-80
2022/04/09 06:11:02;;;;;;;14.20;2.60;;;;;;;4.05;84.16;101093.56;5072918;28;20365;-80
2022/04/09 06:13:28;;;;;;;23.15;3.38;;;;;;;4.20;83.33;101100.53;5073105;28;20028;-81
2022/04/09 06:15:53;;;;;;;21.48;3.50;;;;;;;4.24;83.32;101104.69;5091150;28;20040;-82
2022/04/09 06:18:19;;;;;;;13.15;3.95;;;;;;;4.32;82.30;101113.91;5072209;28;20153;-81
2022/04/09 06:20:44;;;;;;;15.30;3.00;;;;;;;4.35;81.94;101106.66;5091236;28;20024;-80
2022/04/09 06:23:10;;;;;;;20.65;3.38;;;;;;;4.41;82.33;101116.00;5072855;28;20384;-81
2022/04/09 06:25:35;;;;;;;17.08;3.40;;;;;;;4.38;82.66;101114.38;5073077;28;20028;-79
2022/04/09 06:28:01;;;;;;;21.60;3.40;;;;;;;4.33;83.51;101123.50;5039553;28;20045;-81
2022/04/09 06:30:28;;;;;;;17.98;3.55;;;;;;;4.28;83.80;101118.50;5091514;28;20448;-80
2022/04/09 06:32:54;;;;;;;32.88;4.28;;;;;;;4.27;83.39;101129.13;5073112;28;20417;-80
2022/04/09 06:35:20;;;;;;;21.33;3.55;;;;;;;4.26;83.36;101127.47;5090852;28;20082;-80
2022/04/09 06:37:46;;;;;;;20.85;4.50;;;;;;;4.22;83.76;101126.78;5090801;28;20103;-81
2022/04/09 06:40:12;;;;;;;10.95;2.72;;;;;;;4.19;83.43;101137.50;5072214;28;20062;-80
2022/04/09 06:42:41;;;;;;;18.98;3.85;;;;;;;4.27;83.38;101139.69;5090866;28;20118;-81
2022/04/09 06:45:08;;;;;;;19.02;3.53;;;;;;;4.29;84.02;101143.91;5091150;28;20073;-81
2022/04/09 06:47:38;;;;;;;13.93;3.30;;;;;;;4.32;84.73;101140.25;5072327;28;20097;-81
2022/04/09 06:50:12;;;;;;;18.10;4.05;;;;;;;4.37;84.63;101157.50;5090976;28;20039;-79
2022/04/09 06:52:38;;;;;;;7.47;2.45;;;;;;;4.39;82.00;101170.59;5071702;28;20032;-80
2022/04/09 06:55:04;;;;;;;7.75;1.90;;;;;;;3.93;80.61;101189.91;5072425;28;20028;-79
2022/04/09 06:57:30;;;;;;;13.88;2.35;;;;;;;3.65;84.46;101180.09;5090613;28;20067;-82
2022/04/09 06:59:57;;;;;;;11.88;2.20;;;;;;;3.58;86.59;101189.25;5090611;28;20052;-82
2022/04/09 07:02:22;;;;;;;16.13;2.80;;;;;;;3.57;87.45;101193.66;5090708;28;20028;-81
2022/04/09 07:04:48;;;;;;;15.98;3.17;;;;;;;3.64;87.19;101196.78;5090153;28;20123;-81
2022/04/09 07:07:22;;;;;;;18.55;3.00;;;;;;;3.69;86.79;101194.78;5055447;28;20067;-82
2022/04/09 07:09:47;;;;;;;23.05;3.17;;;;;;;3.79;86.75;101195.09;5090320;28;20043;-81
2022/04/09 07:12:13;;;;;;;16.83;2.63;;;;;;;3.85;87.03;101198.25;5090360;28;20361;-81
2022/04/09 07:14:38;;;;;;;14.40;2.60;;;;;;;3.97;85.90;101195.81;5055661;28;20128;-80
2022/04/09 07:17:05;;;;;;;18.75;2.90;;;;;;;4.21;85.42;101199.69;5072037;28;20108;-81
2022/04/09 07:19:30;;;;;;;13.38;2.65;;;;;;;4.58;85.36;101205.44;5090494;28;20032;-81
2022/04/09 07:21:56;;;;;;;15.18;2.42;;;;;;;4.96;82.05;101214.63;5090239;28;20451;-81
2022/04/09 07:24:21;;;;;;;10.10;2.03;;;;;;;5.25;79.20;101211.97;5071813;28;20057;-81
2022/04/09 07:26:46;;;;;;;12.57;2.15;;;;;;;5.42;78.50;101214.41;5072373;28;20349;-80
2022/04/09 07:29:12;;;;;;;7.65;2.72;;;;;;;5.56;75.76;101215.31;5054996;28;20032;-80
2022/04/09 07:31:37;;;;;;;11.32;2.40;;;;;;;5.47;76.33;101232.59;5072491;28;20452;-81
2022/04/09 07:34:03;;;;;;;13.15;2.22;;;;;;;5.45;75.75;101226.56;5089829;28;20334;-80
2022/04/09 07:36:29;;;;;;;10.65;2.30;;;;;;;5.27;75.94;101216.22;5071785;28;20025;-80
2022/04/09 07:38:55;;;;;;;11.93;1.60;;;;;;;5.19;75.33;101228.19;5071834;28;20035;-81
2022/04/09 07:41:21;;;;;;;11.30;1.50;;;;;;;5.08;72.79;101234.13;5055225;28;20397;-80
2022/04/09 07:43:46;;;;;;;6.45;1.50;;;;;;;5.13;73.38;101239.94;5089854;28;20103;-83
2022/04/09 07:46:12;;;;;;;5.85;1.20;;;;;;;5.23;71.92;101242.88;5071676;28;20437;-81
2022/04/09 07:48:37;;;;;;;9.27;1.48;;;;;;;5.46;72.80;101239.66;5071746;28;20192;-83
2022/04/09 07:51:03;;;;;;;15.77;1.80;;;;;;;5.57;71.91;101244.25;5072287;28;20525;-82
2022/04/09 07:53:28;;;;;;;6.65;1.70;;;;;;;5.67;71.63;101243.69;5072042;28;20097;-81
2022/04/09 07:55:54;;;;;;;4.38;1.60;;;;;;;5.79;72.82;101254.31;5090035;28;20032;-83
2022/04/09 07:58:19;;;;;;;8.63;2.17;;;;;;;6.02;73.60;101257.28;5054717;28;20036;-83
2022/04/09 08:00:45;;;;;;;15.75;2.60;;;;;;;6.08;74.32;101256.91;5090249;28;20032;-82
2022/04/09 08:03:11;;;;;;;11.57;3.00;;;;;;;6.03;75.40;101269.56;5089789;28;20368;-80
2022/04/09 08:05:37;;;;;;;13.00;2.70;;;;;;;5.90;76.89;101285.31;5090237;28;20076;-82
2022/04/09 08:08:03;;;;;;;11.50;1.85;;;;;;;5.73;76.96;101288.16;5071921;28;20356;-82
2022/04/09 08:10:29;;;;;;;20.05;3.70;;;;;;;5.50;75.52;101302.81;5090133;28;20102;-80
2022/04/09 08:12:57;;;;;;;10.77;1.75;;;;;;;5.19;75.65;101300.25;5090508;28;20135;-80
2022/04/09 08:15:24;;;;;;;19.98;2.53;;;;;;;4.95;75.81;101302.56;5089859;28;20060;-81
2022/04/09 08:17:54;;;;;;;15.80;1.90;;;;;;;4.72;77.22;101304.78;5089850;28;20123;-81
2022/04/09 08:20:20;;;;;;;12.52;2.20;;;;;;;4.61;78.39;101296.63;5089935;28;20053;-81
2022/04/09 08:22:46;;;;;;;17.23;2.58;;;;;;;4.59;79.02;101299.38;5071961;28;20028;-82
2022/04/09 08:25:11;;;;;;;19.42;2.50;;;;;;;4.53;79.04;101291.81;5090137;28;20086;-82
2022/04/09 08:27:38;;;;;;;11.65;2.05;;;;;;;4.52;79.51;101300.69;5073172;28;20161;-82
2022/04/09 08:30:06;;;;;;;11.65;2.40;;;;;;;4.57;81.05;101293.34;5075036;28;20405;-82
2022/04/09 08:32:32;;;;;;;12.35;2.58;;;;;;;5.01;81.01;101290.81;5093955;28;20024;-82
2022/04/09 08:34:57;;;;;;;14.55;2.80;;;;;;;5.62;79.25;101296.75;5075689;28;20302;-82
2022/04/09 08:37:23;;;;;;;13.98;2.60;;;;;;;6.18;78.08;101292.34;5093563;28;20087;-83
2022/04/09 08:39:50;;;;;;;14.02;3.40;;;;;;;6.79;76.10;101286.59;5093531;28;20402;-82
2022/04/09 08:42:15;;;;;;;13.68;2.92;;;;;;;7.30;70.59;101290.19;5075537;28;20543;-80
2022/04/09 08:44:41;;;;;;;17.10;2.90;;;;;;;7.75;68.84;101296.72;5075430;28;20119;-82
2022/04/09 08:47:07;;;;;;;14.63;2.80;;;;;;;8.12;67.73;101290.53;5075366;28;20036;-83
2022/04/09 08:49:37;;;;;;;13.60;3.28;;;;;;;8.55;64.85;101297.19;5075289;28;20047;-81
2022/04/09 08:52:07;;;;;;;14.77;3.20;;;;;;;8.43;66.45;101314.81;5093210;28;20395;-82
2022/04/09 08:54:34;;;;;;;13.02;2.70;;;;;;;8.55;66.10;101307.78;5075605;28;20055;-82
2022/04/09 08:57:00;;;;;;;16.25;2.70;;;;;;;9.11;63.75;101326.53;5074949;28;20098;-81
2022/04/09 08:59:25;;;;;;;12.07;3.00;;;;;;;9.30;62.26;101323.31;5074352;28;20413;-80
2022/04/09 09:01:50;;;;;;;11.82;2.70;;;;;;;9.68;60.46;101330.06;5074602;28;20050;-79
2022/04/09 09:04:17;;;;;;;14.48;3.30;;;;;;;9.66;59.38;101328.53;5058053;28;20413;-79
2022/04/09 09:06:45;;;;;;;12.30;2.78;;;;;;;9.39;62.28;101337.69;5092912;28;20038;-78
2022/04/09 09:09:29;;;;;;;15.60;3.13;;;;;;;9.02;62.58;101343.16;5092470;28;20089;-79
2022/04/09 09:11:55;;;;;;;14.52;3.25;;;;;;;8.58;63.87;101339.38;5092216;28;20351;-80
2022/04/09 09:14:36;;;;;;;16.15;3.15;;;;;;;8.79;65.33;101340.44;5092203;28;20161;-81
2022/04/09 09:17:03;;;;;;;11.73;2.55;;;;;;;9.81;60.23;101343.25;5092314;28;20052;-79
2022/04/09 09:19:46;;;;;;;16.98;2.92;;;;;;;9.40;59.75;101342.03;5074272;28;20047;-79
2022/04/09 09:22:11;;;;;;;12.65;2.60;;;;;;;9.50;61.27;101342.16;5073316;28;20070;-79
2022/04/09 09:24:37;;;;;;;17.40;2.88;;;;;;;11.16;55.65;101351.78;5092012;28;20040;-79
2022/04/09 09:27:04;;;;;;;12.65;2.78;;;;;;;11.95;53.19;101348.53;5092021;28;20028;-80
2022/04/09 09:29:30;;;;;;;15.23;3.05;;;;;;;12.09;52.26;101360.66;5092441;28;20523;-81
2022/04/09 09:31:58;;;;;;;14.80;3.10;;;;;;;12.41;52.00;101356.94;5091077;28;20051;-79
2022/04/09 09:34:24;;;;;;;9.57;2.72;;;;;;;12.46;51.31;101361.84;5092058;28;20024;-82
2022/04/09 09:36:50;;;;;;;13.55;2.80;;;;;;;12.89;48.79;101373.94;5092103;28;20097;-81
2022/04/09 09:39:25;;;;;;;17.45;3.38;;;;;;;12.19;49.81;101383.84;5092153;28;20038;-78
2022/04/09 09:42:04;;;;;;;12.90;3.15;;;;;;;12.44;49.03;101372.66;5091697;28;20056;-81
2022/04/09 09:44:34;;;;;;;9.18;2.50;;;;;;;12.55;48.69;101376.19;5091984;28;20437;-81
2022/04/09 09:47:08;;;;;;;12.77;2.72;;;;;;;11.46;52.03;101366.13;5092054;28;20066;-82
2022/04/09 09:49:58;;;;;;;14.93;3.30;;;;;;;10.32;55.46;101373.75;5092091;28;20051;-81
2022/04/09 09:52:36;;;;;;;11.88;2.83;;;;;;;10.22;56.13;101394.91;5074184;28;20032;-81
2022/04/09 09:55:19;;;;;;;14.23;3.40;;;;;;;10.79;56.63;101386.81;5074104;28;20032;-80
2022/04/09 09:57:48;;;;;;;10.48;3.45;;;;;;;11.82;52.62;101378.09;5092215;28;20135;-82
2022/04/09 10:00:14;;;;;;;14.07;3.00;;;;;;;12.29;49.84;101390.06;5091811;28;20078;-81
2022/04/09 10:02:40;;;;;;;12.73;2.92;;;;;;;12.68;48.25;101390.13;5091434;28;20040;-79
2022/04/09 10:05:07;;;;;;;11.10;2.78;;;;;;;13.38;47.22;101403.31;5091520;28;20109;-79
2022/04/09 10:07:34;;;;;;;7.95;2.45;;;;;;;13.18;45.51;101395.31;5091342;28;20132;-81
2022/04/09 10:10:04;;;;;;;9.80;2.53;;;;;;;11.29;49.35;101404.88;5073301;28;20054;-80
2022/04/09 10:12:41;;;;;;;11.05;2.35;;;;;;;10.19;53.97;101399.63;5073313;28;20035;-79
2022/04/09 10:15:08;;;;;;;8.52;2.58;;;;;;;10.11;54.93;101413.56;5073007;28;20098;-81
2022/04/09 10:17:34;;;;;;;7.22;2.45;;;;;;;11.07;52.74;101413.81;5073884;28;20104;-81
2022/04/09 10:20:02;;;;;;;12.10;2.53;;;;;;;12.56;49.45;101399.25;5073668;28;20145;-79
2022/04/09 10:22:56;;;;;;;11.25;2.40;;;;;;;13.07;47.44;101408.81;5073917;28;20028;-79
2022/04/09 10:25:25;;;;;;;8.48;2.20;;;;;;;11.63;49.05;101420.66;5070328;28;20044;-80
2022/04/09 10:27:54;;;;;;;15.15;3.15;;;;;;;11.15;50.82;101419.34;5091336;28;20048;-79
2022/04/09 10:30:22;;;;;;;10.85;2.47;;;;;;;11.23;49.66;101434.69;5056513;28;20032;-79
2022/04/09 10:32:55;;;;;;;17.95;2.92;;;;;;;11.37;50.80;101421.03;5091565;28;20032;-79
2022/04/09 10:35:27;;;;;;;12.02;2.88;;;;;;;12.27;48.24;101430.22;5091126;28;20111;-80
2022/04/09 10:38:12;;;;;;;29.90;3.38;;;;;;;12.36;49.90;101433.91;5091258;28;20028;-81
2022/04/09 10:40:50;;;;;;;13.02;2.80;;;;;;;13.48;46.52;101433.56;5091034;28;20120;-82
2022/04/09 10:43:22;;;;;;;13.32;2.60;;;;;;;13.85;47.26;101443.47;5091952;28;20040;-82
2022/04/09 10:46:02;;;;;;;7.80;1.75;;;;;;;12.32;46.20;101454.66;5073384;28;20032;-80
2022/04/09 10:48:29;;;;;;;9.63;2.07;;;;;;;10.87;50.27;101460.75;5072698;28;20028;-81
2022/04/09 10:51:08;;;;;;;6.22;1.80;;;;;;;9.42;52.76;101461.41;5055398;28;20032;-82
2022/04/09 10:53:36;;;;;;;10.85;2.03;;;;;;;8.76;55.65;101461.88;5090509;28;20463;-81
2022/04/09 10:56:12;;;;;;;11.40;2.00;;;;;;;9.08;55.65;101463.97;5073116;28;20348;-81
2022/04/09 10:59:13;;;;;;;13.60;1.88;;;;;;;8.64;57.22;101456.50;5090533;28;20024;-81
2022/04/09 11:01:50;;;;;;;7.20;1.53;;;;;;;8.23;59.59;101459.44;4988820;28;20109;-81
2022/04/09 11:04:28;;;;;;;6.45;1.50;;;;;;;9.40;56.70;101458.03;5059774;28;20040;-79
2022/04/09 11:07:19;;;;;;;14.45;1.92;;;;;;;10.48;53.94;101458.53;5091162;28;20077;-82
2022/04/09 11:09:45;;;;;;;10.35;1.88;;;;;;;11.30;48.91;101473.16;5073061;28;20110;-83
2022/04/09 11:12:11;;;;;;;8.43;1.58;;;;;;;12.12;45.58;101466.22;5090452;28;20512;-78
2022/04/09 11:14:49;;;;;;;7.80;1.83;;;;;;;11.68;45.76;101470.91;5091084;28;20036;-80
2022/04/09 11:17:18;;;;;;;5.72;1.75;;;;;;;10.30;47.83;101471.47;5090516;28;20379;-78
2022/04/09 11:19:45;;;;;;;12.02;1.92;;;;;;;10.26;50.13;101467.34;5090742;28;20051;-78
2022/04/09 11:22:10;;;;;;;11.30;1.60;;;;;;;11.01;49.19;101476.41;5091164;28;20059;-81
2022/04/09 11:24:37;;;;;;;8.65;1.60;;;;;;;11.51;48.63;101478.50;5090183;28;20044;-83